sensor_id;sensor_type;location;lat;lon;timestamp;P1;durP1;ratioP1;P2;durP2;ratioP2
54145;SDS011;65909;49.422;7.738;2023-03-23T00:02:24;1.10;;;0.93;;
54145;SDS011;65909;49.422;7.738;2023-03-23T00:04:50;1.55;;;0.90;;
54145;SDS011;65909;49.422;7.738;2023-03-23T00:07:16;0.73;;;0.70;;
54145;SDS011;65909;49.422;7.738;2023-03-23T00:09:46;1.92;;;1.30;;
54145;SDS011;65909;49.422;7.738;2023-03-23T00:12:25;1.48;;;1.08;;
54145;SDS011;65909;49.422;7.738;2023-03-23T00:14:58;1.10;;;0.75;;
54145;SDS011;65909;49.422;7.738;2023-03-23T00:17:30;1.58;;;1.00;;
54145;SDS011;65909;49.422;7.738;2023-03-23T00:20:00;1.48;;;1.08;;
54145;SDS011;65909;49.422;7.738;2023-03-23T00:22:29;1.92;;;0.90;;
54145;SDS011;65909;49.422;7.738;2023-03-23T00:24:55;1.55;;;0.93;;
54145;SDS011;65909;49.422;7.738;2023-03-23T00:27:21;1.00;;;0.90;;
54145;SDS011;65909;49.422;7.738;2023-03-23T00:29:51;1.08;;;0.85;;
54145;SDS011;65909;49.422;7.738;2023-03-23T00:32:20;2.13;;;1.00;;
54145;SDS011;65909;49.422;7.738;2023-03-23T00:34:54;1.58;;;1.05;;
54145;SDS011;65909;49.422;7.738;2023-03-23T00:37:20;1.90;;;0.90;;
54145;SDS011;65909;49.422;7.738;2023-03-23T00:39:46;1.48;;;0.90;;
54145;SDS011;65909;49.422;7.738;2023-03-23T00:42:12;2.20;;;1.00;;
54145;SDS011;65909;49.422;7.738;2023-03-23T00:44:39;1.92;;;1.00;;
54145;SDS011;65909;49.422;7.738;2023-03-23T00:47:05;1.15;;;0.95;;
54145;SDS011;65909;49.422;7.738;2023-03-23T00:49:32;1.48;;;0.90;;
54145;SDS011;65909;49.422;7.738;2023-03-23T00:52:00;1.63;;;0.90;;
54145;SDS011;65909;49.422;7.738;2023-03-23T00:54:26;2.67;;;1.10;;
54145;SDS011;65909;49.422;7.738;2023-03-23T00:56:52;1.15;;;0.93;;
54145;SDS011;65909;49.422;7.738;2023-03-23T00:59:17;0.90;;;0.77;;
54145;SDS011;65909;49.422;7.738;2023-03-23T01:01:43;1.25;;;0.90;;
54145;SDS011;65909;49.422;7.738;2023-03-23T01:04:09;1.70;;;0.80;;
54145;SDS011;65909;49.422;7.738;2023-03-23T01:06:37;1.80;;;1.10;;
54145;SDS011;65909;49.422;7.738;2023-03-23T01:09:05;1.92;;;1.00;;
54145;SDS011;65909;49.422;7.738;2023-03-23T01:11:31;2.95;;;0.80;;
54145;SDS011;65909;49.422;7.738;2023-03-23T01:13:57;1.30;;;0.98;;
54145;SDS011;65909;49.422;7.738;2023-03-23T01:16:23;3.20;;;1.20;;
54145;SDS011;65909;49.422;7.738;2023-03-23T01:18:49;1.30;;;0.80;;
54145;SDS011;65909;49.422;7.738;2023-03-23T01:21:15;1.25;;;0.85;;
54145;SDS011;65909;49.422;7.738;2023-03-23T01:23:42;1.83;;;0.98;;
54145;SDS011;65909;49.422;7.738;2023-03-23T01:26:09;1.23;;;1.00;;
54145;SDS011;65909;49.422;7.738;2023-03-23T01:28:37;1.65;;;1.08;;
54145;SDS011;65909;49.422;7.738;2023-03-23T01:31:03;0.73;;;0.73;;
54145;SDS011;65909;49.422;7.738;2023-03-23T01:33:31;2.20;;;1.17;;
54145;SDS011;65909;49.422;7.738;2023-03-23T01:35:57;1.85;;;0.80;;
54145;SDS011;65909;49.422;7.738;2023-03-23T01:38:22;1.52;;;0.95;;
54145;SDS011;65909;49.422;7.738;2023-03-23T01:40:48;0.82;;;0.82;;
54145;SDS011;65909;49.422;7.738;2023-03-23T01:43:14;2.45;;;1.00;;
54145;SDS011;65909;49.422;7.738;2023-03-23T01:45:41;2.05;;;0.88;;
54145;SDS011;65909;49.422;7.738;2023-03-23T01:48:08;0.80;;;0.80;;
54145;SDS011;65909;49.422;7.738;2023-03-23T01:50:54;1.88;;;0.85;;
54145;SDS011;65909;49.422;7.738;2023-03-23T01:53:38;4.35;;;0.88;;
54145;SDS011;65909;49.422;7.738;2023-03-23T01:56:10;1.65;;;1.00;;
54145;SDS011;65909;49.422;7.738;2023-03-23T01:58:38;3.05;;;0.93;;
54145;SDS011;65909;49.422;7.738;2023-03-23T02:01:05;2.05;;;0.95;;
54145;SDS011;65909;49.422;7.738;2023-03-23T02:03:33;1.77;;;1.20;;
54145;SDS011;65909;49.422;7.738;2023-03-23T02:06:01;2.08;;;1.27;;
54145;SDS011;65909;49.422;7.738;2023-03-23T02:08:27;1.45;;;0.90;;
54145;SDS011;65909;49.422;7.738;2023-03-23T02:10:54;1.50;;;1.00;;
54145;SDS011;65909;49.422;7.738;2023-03-23T02:13:19;1.40;;;0.93;;
54145;SDS011;65909;49.422;7.738;2023-03-23T02:18:57;1.45;;;0.95;;
54145;SDS011;65909;49.422;7.738;2023-03-23T02:21:47;1.27;;;0.90;;
54145;SDS011;65909;49.422;7.738;2023-03-23T02:30:27;1.38;;;0.90;;
54145;SDS011;65909;49.422;7.738;2023-03-23T02:35:53;1.45;;;0.90;;
54145;SDS011;65909;49.422;7.738;2023-03-23T02:38:25;1.75;;;1.00;;
54145;SDS011;65909;49.422;7.738;2023-03-23T02:41:02;1.33;;;1.17;;
54145;SDS011;65909;49.422;7.738;2023-03-23T02:43:30;1.35;;;0.90;;
54145;SDS011;65909;49.422;7.738;2023-03-23T02:45:59;1.00;;;0.90;;
54145;SDS011;65909;49.422;7.738;2023-03-23T02:48:28;2.35;;;1.00;;
54145;SDS011;65909;49.422;7.738;2023-03-23T02:50:55;1.30;;;1.05;;
54145;SDS011;65909;49.422;7.738;2023-03-23T02:53:23;2.28;;;1.30;;
54145;SDS011;65909;49.422;7.738;2023-03-23T02:55:51;1.23;;;1.00;;
54145;SDS011;65909;49.422;7.738;2023-03-23T02:58:20;3.13;;;1.10;;
54145;SDS011;65909;49.422;7.738;2023-03-23T03:00:48;1.63;;;0.98;;
54145;SDS011;65909;49.422;7.738;2023-03-23T03:03:15;1.20;;;0.85;;
54145;SDS011;65909;49.422;7.738;2023-03-23T03:11:24;1.30;;;1.10;;
54145;SDS011;65909;49.422;7.738;2023-03-23T03:14:10;1.48;;;1.13;;
54145;SDS011;65909;49.422;7.738;2023-03-23T03:17:01;1.92;;;1.13;;
54145;SDS011;65909;49.422;7.738;2023-03-23T03:19:34;2.65;;;1.02;;
54145;SDS011;65909;49.422;7.738;2023-03-23T03:22:02;0.90;;;0.85;;
54145;SDS011;65909;49.422;7.738;2023-03-23T03:24:29;1.42;;;0.95;;
54145;SDS011;65909;49.422;7.738;2023-03-23T03:26:57;2.55;;;1.30;;
54145;SDS011;65909;49.422;7.738;2023-03-23T03:29:32;1.88;;;1.40;;
54145;SDS011;65909;49.422;7.738;2023-03-23T03:32:00;2.40;;;1.40;;
54145;SDS011;65909;49.422;7.738;2023-03-23T03:34:30;1.63;;;1.00;;
54145;SDS011;65909;49.422;7.738;2023-03-23T03:36:57;1.73;;;1.27;;
54145;SDS011;65909;49.422;7.738;2023-03-23T03:39:25;1.70;;;1.33;;
54145;SDS011;65909;49.422;7.738;2023-03-23T03:41:52;2.70;;;1.10;;
54145;SDS011;65909;49.422;7.738;2023-03-23T03:44:17;2.47;;;1.30;;
54145;SDS011;65909;49.422;7.738;2023-03-23T03:46:43;2.90;;;1.20;;
54145;SDS011;65909;49.422;7.738;2023-03-23T03:49:09;1.10;;;1.00;;
54145;SDS011;65909;49.422;7.738;2023-03-23T03:51:37;1.75;;;1.20;;
54145;SDS011;65909;49.422;7.738;2023-03-23T03:54:04;1.25;;;1.13;;
54145;SDS011;65909;49.422;7.738;2023-03-23T03:56:30;1.58;;;1.10;;
54145;SDS011;65909;49.422;7.738;2023-03-23T03:58:56;3.05;;;1.23;;
54145;SDS011;65909;49.422;7.738;2023-03-23T04:01:22;3.78;;;1.20;;
54145;SDS011;65909;49.422;7.738;2023-03-23T04:03:48;1.67;;;1.25;;
54145;SDS011;65909;49.422;7.738;2023-03-23T04:06:14;2.35;;;1.10;;
54145;SDS011;65909;49.422;7.738;2023-03-23T04:08:40;2.42;;;1.23;;
54145;SDS011;65909;49.422;7.738;2023-03-23T04:11:07;2.58;;;1.20;;
54145;SDS011;65909;49.422;7.738;2023-03-23T04:13:39;1.85;;;1.40;;
54145;SDS011;65909;49.422;7.738;2023-03-23T04:16:05;2.90;;;1.40;;
54145;SDS011;65909;49.422;7.738;2023-03-23T04:18:31;2.85;;;1.60;;
54145;SDS011;65909;49.422;7.738;2023-03-23T04:20:58;1.85;;;1.27;;
54145;SDS011;65909;49.422;7.738;2023-03-23T04:23:24;2.15;;;1.65;;
54145;SDS011;65909;49.422;7.738;2023-03-23T04:25:50;1.85;;;1.40;;
54145;SDS011;65909;49.422;7.738;2023-03-23T04:28:17;4.07;;;1.20;;
54145;SDS011;65909;49.422;7.738;2023-03-23T04:30:44;1.55;;;1.20;;
54145;SDS011;65909;49.422;7.738;2023-03-23T04:33:10;2.50;;;1.45;;
54145;SDS011;65909;49.422;7.738;2023-03-23T04:35:40;2.15;;;1.38;;
54145;SDS011;65909;49.422;7.738;2023-03-23T04:38:06;1.70;;;1.20;;
54145;SDS011;65909;49.422;7.738;2023-03-23T04:40:35;1.80;;;1.40;;
54145;SDS011;65909;49.422;7.738;2023-03-23T04:43:02;2.03;;;1.33;;
54145;SDS011;65909;49.422;7.738;2023-03-23T04:45:30;2.38;;;1.58;;
54145;SDS011;65909;49.422;7.738;2023-03-23T04:47:57;2.47;;;1.80;;
54145;SDS011;65909;49.422;7.738;2023-03-23T04:50:23;1.90;;;1.48;;
54145;SDS011;65909;49.422;7.738;2023-03-23T04:52:55;1.92;;;1.58;;
54145;SDS011;65909;49.422;7.738;2023-03-23T04:55:22;3.17;;;1.60;;
54145;SDS011;65909;49.422;7.738;2023-03-23T04:57:49;2.58;;;1.60;;
54145;SDS011;65909;49.422;7.738;2023-03-23T05:00:14;3.05;;;1.60;;
54145;SDS011;65909;49.422;7.738;2023-03-23T05:02:41;2.38;;;1.35;;
54145;SDS011;65909;49.422;7.738;2023-03-23T05:05:09;2.72;;;1.45;;
54145;SDS011;65909;49.422;7.738;2023-03-23T05:07:37;2.03;;;1.60;;
54145;SDS011;65909;49.422;7.738;2023-03-23T05:10:03;2.70;;;1.20;;
54145;SDS011;65909;49.422;7.738;2023-03-23T05:12:29;3.05;;;1.60;;
54145;SDS011;65909;49.422;7.738;2023-03-23T05:14:55;4.43;;;1.70;;
54145;SDS011;65909;49.422;7.738;2023-03-23T05:17:20;3.13;;;1.30;;
54145;SDS011;65909;49.422;7.738;2023-03-23T05:19:49;4.20;;;1.63;;
54145;SDS011;65909;49.422;7.738;2023-03-23T05:22:18;2.33;;;1.48;;
54145;SDS011;65909;49.422;7.738;2023-03-23T05:24:46;2.28;;;1.70;;
54145;SDS011;65909;49.422;7.738;2023-03-23T05:27:16;3.25;;;1.63;;
54145;SDS011;65909;49.422;7.738;2023-03-23T05:29:43;5.03;;;2.20;;
54145;SDS011;65909;49.422;7.738;2023-03-23T05:32:13;6.10;;;3.08;;
54145;SDS011;65909;49.422;7.738;2023-03-23T05:34:42;3.92;;;2.58;;
54145;SDS011;65909;49.422;7.738;2023-03-23T05:37:08;3.75;;;2.03;;
54145;SDS011;65909;49.422;7.738;2023-03-23T05:39:34;4.35;;;1.88;;
54145;SDS011;65909;49.422;7.738;2023-03-23T05:42:00;4.00;;;1.90;;
54145;SDS011;65909;49.422;7.738;2023-03-23T05:44:26;2.00;;;1.67;;
54145;SDS011;65909;49.422;7.738;2023-03-23T05:46:51;2.42;;;1.30;;
54145;SDS011;65909;49.422;7.738;2023-03-23T05:49:17;2.20;;;1.60;;
54145;SDS011;65909;49.422;7.738;2023-03-23T05:51:43;2.13;;;1.52;;
54145;SDS011;65909;49.422;7.738;2023-03-23T05:54:09;2.80;;;2.13;;
54145;SDS011;65909;49.422;7.738;2023-03-23T05:56:35;2.53;;;1.60;;
54145;SDS011;65909;49.422;7.738;2023-03-23T05:59:01;5.43;;;1.85;;
54145;SDS011;65909;49.422;7.738;2023-03-23T06:01:27;2.63;;;1.60;;
54145;SDS011;65909;49.422;7.738;2023-03-23T06:03:53;2.55;;;1.75;;
54145;SDS011;65909;49.422;7.738;2023-03-23T06:06:19;3.22;;;1.98;;
54145;SDS011;65909;49.422;7.738;2023-03-23T06:08:45;3.05;;;1.75;;
54145;SDS011;65909;49.422;7.738;2023-03-23T06:11:13;2.92;;;2.28;;
54145;SDS011;65909;49.422;7.738;2023-03-23T06:13:39;2.03;;;1.30;;
54145;SDS011;65909;49.422;7.738;2023-03-23T06:16:04;1.75;;;1.60;;
54145;SDS011;65909;49.422;7.738;2023-03-23T06:18:30;3.60;;;1.90;;
54145;SDS011;65909;49.422;7.738;2023-03-23T06:20:58;1.92;;;1.50;;
54145;SDS011;65909;49.422;7.738;2023-03-23T06:23:25;4.57;;;1.50;;
54145;SDS011;65909;49.422;7.738;2023-03-23T06:25:53;2.22;;;1.90;;
54145;SDS011;65909;49.422;7.738;2023-03-23T06:28:19;1.85;;;1.70;;
54145;SDS011;65909;49.422;7.738;2023-03-23T06:30:45;2.47;;;2.00;;
54145;SDS011;65909;49.422;7.738;2023-03-23T06:33:10;4.75;;;2.17;;
54145;SDS011;65909;49.422;7.738;2023-03-23T06:35:36;4.68;;;2.08;;
54145;SDS011;65909;49.422;7.738;2023-03-23T06:38:01;3.20;;;1.60;;
54145;SDS011;65909;49.422;7.738;2023-03-23T06:40:27;2.55;;;1.73;;
54145;SDS011;65909;49.422;7.738;2023-03-23T06:42:53;3.30;;;2.78;;
54145;SDS011;65909;49.422;7.738;2023-03-23T06:45:21;2.38;;;1.67;;
54145;SDS011;65909;49.422;7.738;2023-03-23T06:47:46;3.30;;;1.70;;
54145;SDS011;65909;49.422;7.738;2023-03-23T06:50:15;2.72;;;1.80;;
54145;SDS011;65909;49.422;7.738;2023-03-23T06:52:41;5.45;;;2.03;;
54145;SDS011;65909;49.422;7.738;2023-03-23T06:55:11;2.42;;;1.85;;
54145;SDS011;65909;49.422;7.738;2023-03-23T06:57:36;2.63;;;1.90;;
54145;SDS011;65909;49.422;7.738;2023-03-23T07:00:02;2.63;;;1.70;;
54145;SDS011;65909;49.422;7.738;2023-03-23T07:02:30;2.97;;;2.15;;
54145;SDS011;65909;49.422;7.738;2023-03-23T07:04:55;3.17;;;1.85;;
54145;SDS011;65909;49.422;7.738;2023-03-23T07:07:21;3.03;;;2.20;;
54145;SDS011;65909;49.422;7.738;2023-03-23T07:09:46;2.47;;;1.70;;
54145;SDS011;65909;49.422;7.738;2023-03-23T07:12:12;1.70;;;1.60;;
54145;SDS011;65909;49.422;7.738;2023-03-23T07:14:39;3.72;;;1.65;;
54145;SDS011;65909;49.422;7.738;2023-03-23T07:17:04;9.23;;;2.20;;
54145;SDS011;65909;49.422;7.738;2023-03-23T07:19:30;2.20;;;1.70;;
54145;SDS011;65909;49.422;7.738;2023-03-23T07:21:56;3.33;;;1.88;;
54145;SDS011;65909;49.422;7.738;2023-03-23T07:24:22;3.20;;;1.77;;
54145;SDS011;65909;49.422;7.738;2023-03-23T07:26:47;4.90;;;1.85;;
54145;SDS011;65909;49.422;7.738;2023-03-23T07:29:12;2.63;;;2.13;;
54145;SDS011;65909;49.422;7.738;2023-03-23T07:31:38;4.05;;;2.35;;
54145;SDS011;65909;49.422;7.738;2023-03-23T07:34:03;3.58;;;2.00;;
54145;SDS011;65909;49.422;7.738;2023-03-23T07:36:29;2.25;;;1.77;;
54145;SDS011;65909;49.422;7.738;2023-03-23T07:38:55;4.60;;;2.50;;
54145;SDS011;65909;49.422;7.738;2023-03-23T07:41:21;4.28;;;2.20;;
54145;SDS011;65909;49.422;7.738;2023-03-23T07:43:47;5.15;;;2.38;;
54145;SDS011;65909;49.422;7.738;2023-03-23T07:46:12;3.60;;;1.92;;
54145;SDS011;65909;49.422;7.738;2023-03-23T07:48:38;4.03;;;2.15;;
54145;SDS011;65909;49.422;7.738;2023-03-23T07:51:04;2.97;;;2.15;;
54145;SDS011;65909;49.422;7.738;2023-03-23T07:53:31;2.67;;;2.40;;
54145;SDS011;65909;49.422;7.738;2023-03-23T07:55:57;5.55;;;2.30;;
54145;SDS011;65909;49.422;7.738;2023-03-23T07:58:22;3.13;;;2.17;;
54145;SDS011;65909;49.422;7.738;2023-03-23T08:00:48;3.78;;;1.88;;
54145;SDS011;65909;49.422;7.738;2023-03-23T08:03:14;3.30;;;1.90;;
54145;SDS011;65909;49.422;7.738;2023-03-23T08:05:40;4.90;;;2.80;;
54145;SDS011;65909;49.422;7.738;2023-03-23T08:08:07;2.83;;;2.25;;
54145;SDS011;65909;49.422;7.738;2023-03-23T08:10:34;3.53;;;2.33;;
54145;SDS011;65909;49.422;7.738;2023-03-23T08:13:00;2.83;;;2.00;;
54145;SDS011;65909;49.422;7.738;2023-03-23T08:15:26;3.47;;;2.00;;
54145;SDS011;65909;49.422;7.738;2023-03-23T08:17:53;2.47;;;1.85;;
54145;SDS011;65909;49.422;7.738;2023-03-23T08:20:19;5.45;;;2.05;;
54145;SDS011;65909;49.422;7.738;2023-03-23T08:22:45;2.78;;;2.03;;
54145;SDS011;65909;49.422;7.738;2023-03-23T08:25:15;2.95;;;1.90;;
54145;SDS011;65909;49.422;7.738;2023-03-23T08:27:42;5.00;;;2.22;;
54145;SDS011;65909;49.422;7.738;2023-03-23T08:30:09;4.40;;;2.22;;
54145;SDS011;65909;49.422;7.738;2023-03-23T08:32:39;2.97;;;1.58;;
54145;SDS011;65909;49.422;7.738;2023-03-23T08:35:05;3.08;;;2.10;;
54145;SDS011;65909;49.422;7.738;2023-03-23T08:37:32;3.92;;;1.77;;
54145;SDS011;65909;49.422;7.738;2023-03-23T08:39:58;3.83;;;2.00;;
54145;SDS011;65909;49.422;7.738;2023-03-23T08:42:24;4.60;;;1.90;;
54145;SDS011;65909;49.422;7.738;2023-03-23T08:44:50;3.17;;;2.10;;
54145;SDS011;65909;49.422;7.738;2023-03-23T08:47:17;4.05;;;2.58;;
54145;SDS011;65909;49.422;7.738;2023-03-23T08:49:42;3.20;;;1.92;;
54145;SDS011;65909;49.422;7.738;2023-03-23T08:52:09;2.67;;;1.90;;
54145;SDS011;65909;49.422;7.738;2023-03-23T08:54:34;3.35;;;1.98;;
54145;SDS011;65909;49.422;7.738;2023-03-23T08:57:00;4.72;;;1.90;;
54145;SDS011;65909;49.422;7.738;2023-03-23T08:59:27;3.80;;;1.73;;
54145;SDS011;65909;49.422;7.738;2023-03-23T09:01:52;3.80;;;1.90;;
54145;SDS011;65909;49.422;7.738;2023-03-23T09:04:18;3.70;;;1.70;;
54145;SDS011;65909;49.422;7.738;2023-03-23T09:06:43;3.22;;;1.80;;
54145;SDS011;65909;49.422;7.738;2023-03-23T09:09:10;2.22;;;1.85;;
54145;SDS011;65909;49.422;7.738;2023-03-23T09:11:36;2.92;;;1.70;;
54145;SDS011;65909;49.422;7.738;2023-03-23T09:14:03;2.38;;;1.83;;
54145;SDS011;65909;49.422;7.738;2023-03-23T09:16:30;3.03;;;1.60;;
54145;SDS011;65909;49.422;7.738;2023-03-23T09:18:56;2.63;;;2.03;;
54145;SDS011;65909;49.422;7.738;2023-03-23T09:21:22;5.20;;;1.88;;
54145;SDS011;65909;49.422;7.738;2023-03-23T09:23:51;2.17;;;1.75;;
54145;SDS011;65909;49.422;7.738;2023-03-23T09:26:17;3.22;;;2.00;;
54145;SDS011;65909;49.422;7.738;2023-03-23T09:28:43;2.00;;;1.83;;
54145;SDS011;65909;49.422;7.738;2023-03-23T09:31:10;2.22;;;1.60;;
54145;SDS011;65909;49.422;7.738;2023-03-23T09:33:36;2.72;;;1.80;;
54145;SDS011;65909;49.422;7.738;2023-03-23T09:36:02;2.47;;;1.63;;
54145;SDS011;65909;49.422;7.738;2023-03-23T09:38:29;2.88;;;1.70;;
54145;SDS011;65909;49.422;7.738;2023-03-23T09:48:58;3.30;;;2.03;;
54145;SDS011;65909;49.422;7.738;2023-03-23T09:54:09;2.92;;;1.73;;
54145;SDS011;65909;49.422;7.738;2023-03-23T09:56:36;2.67;;;1.50;;
54145;SDS011;65909;49.422;7.738;2023-03-23T09:59:12;2.80;;;1.85;;
54145;SDS011;65909;49.422;7.738;2023-03-23T10:01:46;4.80;;;1.75;;
54145;SDS011;65909;49.422;7.738;2023-03-23T10:07:00;1.73;;;1.50;;
54145;SDS011;65909;49.422;7.738;2023-03-23T10:09:35;1.90;;;1.48;;
54145;SDS011;65909;49.422;7.738;2023-03-23T10:12:09;2.75;;;1.58;;
54145;SDS011;65909;49.422;7.738;2023-03-23T10:14:50;1.95;;;1.73;;
54145;SDS011;65909;49.422;7.738;2023-03-23T10:18:10;2.35;;;1.67;;
54145;SDS011;65909;49.422;7.738;2023-03-23T10:22:41;2.13;;;1.70;;
54145;SDS011;65909;49.422;7.738;2023-03-23T10:30:30;2.08;;;1.52;;
54145;SDS011;65909;49.422;7.738;2023-03-23T10:35:34;1.90;;;1.60;;
54145;SDS011;65909;49.422;7.738;2023-03-23T10:38:10;2.80;;;1.80;;
54145;SDS011;65909;49.422;7.738;2023-03-23T10:40:50;2.10;;;1.90;;
54145;SDS011;65909;49.422;7.738;2023-03-23T10:43:21;3.00;;;1.85;;
54145;SDS011;65909;49.422;7.738;2023-03-23T10:45:51;1.70;;;1.38;;
54145;SDS011;65909;49.422;7.738;2023-03-23T10:48:30;2.40;;;1.45;;
54145;SDS011;65909;49.422;7.738;2023-03-23T10:51:00;2.50;;;1.05;;
54145;SDS011;65909;49.422;7.738;2023-03-23T10:56:02;3.33;;;1.30;;
54145;SDS011;65909;49.422;7.738;2023-03-23T10:58:32;2.47;;;1.10;;
54145;SDS011;65909;49.422;7.738;2023-03-23T11:01:00;1.33;;;1.02;;
54145;SDS011;65909;49.422;7.738;2023-03-23T11:06:02;2.55;;;1.20;;
54145;SDS011;65909;49.422;7.738;2023-03-23T11:08:32;2.95;;;1.30;;
54145;SDS011;65909;49.422;7.738;2023-03-23T11:13:37;2.05;;;1.33;;
54145;SDS011;65909;49.422;7.738;2023-03-23T11:16:07;3.22;;;1.60;;
54145;SDS011;65909;49.422;7.738;2023-03-23T11:18:37;1.40;;;1.13;;
54145;SDS011;65909;49.422;7.738;2023-03-23T11:21:04;3.53;;;1.60;;
54145;SDS011;65909;49.422;7.738;2023-03-23T11:23:36;1.40;;;1.17;;
54145;SDS011;65909;49.422;7.738;2023-03-23T11:28:57;1.52;;;1.38;;
54145;SDS011;65909;49.422;7.738;2023-03-23T11:31:30;3.20;;;1.65;;
54145;SDS011;65909;49.422;7.738;2023-03-23T11:36:41;1.52;;;1.42;;
54145;SDS011;65909;49.422;7.738;2023-03-23T11:39:23;2.30;;;1.70;;
54145;SDS011;65909;49.422;7.738;2023-03-23T11:41:54;3.88;;;1.58;;
54145;SDS011;65909;49.422;7.738;2023-03-23T11:44:22;2.35;;;1.35;;
54145;SDS011;65909;49.422;7.738;2023-03-23T11:46:52;1.92;;;1.60;;
54145;SDS011;65909;49.422;7.738;2023-03-23T11:49:37;2.38;;;1.60;;
54145;SDS011;65909;49.422;7.738;2023-03-23T11:52:15;3.65;;;1.58;;
54145;SDS011;65909;49.422;7.738;2023-03-23T11:55:08;2.83;;;1.77;;
54145;SDS011;65909;49.422;7.738;2023-03-23T11:57:37;2.13;;;1.30;;
54145;SDS011;65909;49.422;7.738;2023-03-23T12:00:16;3.03;;;1.50;;
54145;SDS011;65909;49.422;7.738;2023-03-23T12:05:39;1.70;;;1.40;;
54145;SDS011;65909;49.422;7.738;2023-03-23T12:14:24;1.23;;;0.95;;
54145;SDS011;65909;49.422;7.738;2023-03-23T12:25:52;1.15;;;0.95;;
54145;SDS011;65909;49.422;7.738;2023-03-23T12:28:38;1.38;;;0.98;;
54145;SDS011;65909;49.422;7.738;2023-03-23T12:31:39;1.60;;;1.00;;
54145;SDS011;65909;49.422;7.738;2023-03-23T12:34:09;1.00;;;0.75;;
54145;SDS011;65909;49.422;7.738;2023-03-23T12:36:43;0.95;;;0.90;;
54145;SDS011;65909;49.422;7.738;2023-03-23T12:45:07;1.30;;;0.98;;
54145;SDS011;65909;49.422;7.738;2023-03-23T12:50:30;1.10;;;0.98;;
54145;SDS011;65909;49.422;7.738;2023-03-23T12:53:20;1.73;;;1.08;;
54145;SDS011;65909;49.422;7.738;2023-03-23T12:56:05;1.50;;;1.10;;
54145;SDS011;65909;49.422;7.738;2023-03-23T12:58:50;1.88;;;1.23;;
54145;SDS011;65909;49.422;7.738;2023-03-23T13:01:25;2.40;;;1.27;;
54145;SDS011;65909;49.422;7.738;2023-03-23T13:04:05;1.02;;;0.98;;
54145;SDS011;65909;49.422;7.738;2023-03-23T13:06:36;2.22;;;1.30;;
54145;SDS011;65909;49.422;7.738;2023-03-23T13:09:25;2.08;;;1.20;;
54145;SDS011;65909;49.422;7.738;2023-03-23T13:11:58;1.30;;;1.17;;
54145;SDS011;65909;49.422;7.738;2023-03-23T13:22:56;1.65;;;1.45;;
54145;SDS011;65909;49.422;7.738;2023-03-23T13:27:59;1.25;;;0.90;;
54145;SDS011;65909;49.422;7.738;2023-03-23T13:30:26;1.40;;;1.00;;
54145;SDS011;65909;49.422;7.738;2023-03-23T13:33:01;1.50;;;1.00;;
54145;SDS011;65909;49.422;7.738;2023-03-23T13:35:35;2.20;;;1.17;;
54145;SDS011;65909;49.422;7.738;2023-03-23T13:38:10;1.13;;;1.00;;
54145;SDS011;65909;49.422;7.738;2023-03-23T13:40:44;1.52;;;1.13;;
54145;SDS011;65909;49.422;7.738;2023-03-23T13:43:11;1.83;;;1.10;;
54145;SDS011;65909;49.422;7.738;2023-03-23T13:45:43;1.17;;;0.93;;
54145;SDS011;65909;49.422;7.738;2023-03-23T13:53:44;2.20;;;1.00;;
54145;SDS011;65909;49.422;7.738;2023-03-23T13:56:17;1.80;;;1.10;;
54145;SDS011;65909;49.422;7.738;2023-03-23T13:58:48;1.42;;;1.00;;
54145;SDS011;65909;49.422;7.738;2023-03-23T14:01:19;1.00;;;0.90;;
54145;SDS011;65909;49.422;7.738;2023-03-23T14:03:58;1.10;;;1.00;;
54145;SDS011;65909;49.422;7.738;2023-03-23T14:06:25;1.42;;;1.15;;
54145;SDS011;65909;49.422;7.738;2023-03-23T14:09:03;1.25;;;1.00;;
54145;SDS011;65909;49.422;7.738;2023-03-23T14:11:45;1.13;;;1.10;;
54145;SDS011;65909;49.422;7.738;2023-03-23T14:14:55;1.30;;;0.95;;
54145;SDS011;65909;49.422;7.738;2023-03-23T14:17:27;2.47;;;1.10;;
54145;SDS011;65909;49.422;7.738;2023-03-23T14:19:56;1.67;;;1.15;;
54145;SDS011;65909;49.422;7.738;2023-03-23T14:24:50;1.35;;;1.10;;
54145;SDS011;65909;49.422;7.738;2023-03-23T14:27:17;1.00;;;0.90;;
54145;SDS011;65909;49.422;7.738;2023-03-23T14:29:45;1.10;;;1.00;;
54145;SDS011;65909;49.422;7.738;2023-03-23T14:32:15;2.45;;;1.13;;
54145;SDS011;65909;49.422;7.738;2023-03-23T14:34:46;4.78;;;1.13;;
54145;SDS011;65909;49.422;7.738;2023-03-23T14:37:13;1.35;;;1.05;;
54145;SDS011;65909;49.422;7.738;2023-03-23T14:39:40;2.75;;;1.17;;
54145;SDS011;65909;49.422;7.738;2023-03-23T14:42:11;2.47;;;1.20;;
54145;SDS011;65909;49.422;7.738;2023-03-23T14:44:40;2.60;;;1.20;;
54145;SDS011;65909;49.422;7.738;2023-03-23T14:47:30;1.40;;;0.93;;
54145;SDS011;65909;49.422;7.738;2023-03-23T14:50:01;1.75;;;1.30;;
54145;SDS011;65909;49.422;7.738;2023-03-23T14:52:32;1.33;;;1.00;;
54145;SDS011;65909;49.422;7.738;2023-03-23T14:55:14;1.50;;;1.23;;
54145;SDS011;65909;49.422;7.738;2023-03-23T14:57:45;1.38;;;1.10;;
54145;SDS011;65909;49.422;7.738;2023-03-23T15:00:15;1.15;;;1.05;;
54145;SDS011;65909;49.422;7.738;2023-03-23T15:02:47;1.80;;;1.13;;
54145;SDS011;65909;49.422;7.738;2023-03-23T15:05:19;2.38;;;1.45;;
54145;SDS011;65909;49.422;7.738;2023-03-23T15:08:00;2.03;;;1.20;;
54145;SDS011;65909;49.422;7.738;2023-03-23T15:10:30;0.88;;;0.85;;
54145;SDS011;65909;49.422;7.738;2023-03-23T15:12:56;2.08;;;1.00;;
54145;SDS011;65909;49.422;7.738;2023-03-23T15:17:53;2.47;;;1.10;;
54145;SDS011;65909;49.422;7.738;2023-03-23T15:22:49;2.30;;;1.45;;
54145;SDS011;65909;49.422;7.738;2023-03-23T15:27:50;2.65;;;1.30;;
54145;SDS011;65909;49.422;7.738;2023-03-23T15:32:53;1.38;;;1.08;;
54145;SDS011;65909;49.422;7.738;2023-03-23T15:35:24;1.05;;;0.95;;
54145;SDS011;65909;49.422;7.738;2023-03-23T15:37:57;1.48;;;1.00;;
54145;SDS011;65909;49.422;7.738;2023-03-23T15:40:25;1.42;;;1.05;;
54145;SDS011;65909;49.422;7.738;2023-03-23T15:49:01;3.35;;;1.23;;
54145;SDS011;65909;49.422;7.738;2023-03-23T15:51:34;4.57;;;1.45;;
54145;SDS011;65909;49.422;7.738;2023-03-23T15:54:00;1.90;;;1.30;;
54145;SDS011;65909;49.422;7.738;2023-03-23T15:56:26;1.80;;;1.42;;
54145;SDS011;65909;49.422;7.738;2023-03-23T15:58:54;1.70;;;1.23;;
54145;SDS011;65909;49.422;7.738;2023-03-23T16:01:23;3.40;;;1.20;;
54145;SDS011;65909;49.422;7.738;2023-03-23T16:03:51;1.50;;;1.10;;
54145;SDS011;65909;49.422;7.738;2023-03-23T16:06:20;4.25;;;1.08;;
54145;SDS011;65909;49.422;7.738;2023-03-23T16:08:47;1.58;;;1.20;;
54145;SDS011;65909;49.422;7.738;2023-03-23T16:11:13;4.28;;;1.17;;
54145;SDS011;65909;49.422;7.738;2023-03-23T16:13:40;1.40;;;0.82;;
54145;SDS011;65909;49.422;7.738;2023-03-23T16:16:08;1.05;;;0.80;;
54145;SDS011;65909;49.422;7.738;2023-03-23T16:18:41;1.23;;;1.05;;
54145;SDS011;65909;49.422;7.738;2023-03-23T16:21:06;0.68;;;0.68;;
54145;SDS011;65909;49.422;7.738;2023-03-23T16:23:32;2.45;;;1.00;;
54145;SDS011;65909;49.422;7.738;2023-03-23T16:25:57;2.90;;;1.15;;
54145;SDS011;65909;49.422;7.738;2023-03-23T16:28:22;2.45;;;1.13;;
54145;SDS011;65909;49.422;7.738;2023-03-23T16:30:48;1.67;;;1.30;;
54145;SDS011;65909;49.422;7.738;2023-03-23T16:33:13;2.45;;;1.45;;
54145;SDS011;65909;49.422;7.738;2023-03-23T16:35:39;4.65;;;1.40;;
54145;SDS011;65909;49.422;7.738;2023-03-23T16:38:05;1.27;;;1.13;;
54145;SDS011;65909;49.422;7.738;2023-03-23T16:40:30;2.17;;;1.42;;
54145;SDS011;65909;49.422;7.738;2023-03-23T16:42:57;2.03;;;1.40;;
54145;SDS011;65909;49.422;7.738;2023-03-23T16:45:22;1.63;;;1.20;;
54145;SDS011;65909;49.422;7.738;2023-03-23T16:47:48;2.50;;;1.50;;
54145;SDS011;65909;49.422;7.738;2023-03-23T16:50:14;2.25;;;1.20;;
54145;SDS011;65909;49.422;7.738;2023-03-23T16:52:41;2.28;;;1.38;;
54145;SDS011;65909;49.422;7.738;2023-03-23T16:55:08;1.55;;;1.42;;
54145;SDS011;65909;49.422;7.738;2023-03-23T16:57:35;2.10;;;1.23;;